Thunder radar more information blitzortung!


Radar de pluja more information rain snow radar


Visita la nostra xarxa de llocs de meteo:

Template documentation
and downloads

And another site



No particular awareness of the weather is required.    There are no Weather-warnings

Pagina Historial Weather Underground text

Diari Resum May 24, 2017 Unitats:  Imperial    Mètric   Tant
« Previous Dia
SegĂźent Dia »
Diari Setmana Mensual Anual Personalitzada
  Maxima: Minima: Media:
Temperatura: TemperatureC °F 15.4 °F 26 °F
Punt de rosada: DewpointC °F 5.8 °F 9.8 °F
Humitat: Humidity % 26 % 38 %
Wind Speed: WindSpeedKMH mph 0.0 mph 8.5 mph
RĂ fegues de vent: WindSpeedGustKMH mph - -
Vent:- - SSW
Pression baro: PressurehPa in 1014.8 in -
Precipitacions: 0.0 in    
Historical Graphs
 
 
Dades de taula per May 24, 2017
Temps Temperatura Punt de rosada Pression baro Vent Wind Speed RĂ fegues de vent Humitat Rainfall Rate (Hourly)
TemperatureC °F DewpointC °F PressurehPa in Calm     Humidity % HourlyPrecipMM in
00:02 19.0 °F 10.8 °F 1019.9 in SW 3.7 mph 3.7 mph 59 % 0.0 in
00:05 16.6 °F 11.1 °F 1019.9 in Calm     70 % 0.0 in
00:07 18.8 °F 10.9 °F 1018.8 in SW 3.7 mph 3.7 mph 60 % 0.0 in
00:12 18.8 °F 10.9 °F 1018.8 in WSW 3.7 mph 3.7 mph 60 % 0.0 in
00:15 16.6 °F 11.1 °F 1019.9 in Calm     70 % 0.0 in
00:25 16.7 °F 11.2 °F 1019.9 in Calm   1.6 mph 70 % 0.0 in
00:35 16.6 °F 11.1 °F 1019.9 in Calm     70 % 0.0 in
00:45 16.7 °F 11.0 °F 1019.9 in North 1.6 mph 3.2 mph 69 % 0.0 in
00:55 16.5 °F 10.8 °F 1019.9 in Calm     69 % 0.0 in
01:05 16.4 °F 10.7 °F 1019.9 in Calm     69 % 0.0 in
01:15 16.1 °F 10.4 °F 1020.9 in Calm   3.2 mph 69 % 0.0 in
01:25 15.7 °F 10.0 °F 1020.9 in SSW 1.6 mph 1.6 mph 69 % 0.0 in
01:35 15.6 °F 9.9 °F 1020.9 in SW 1.6 mph 3.2 mph 69 % 0.0 in
01:45 15.4 °F 9.7 °F 1020.9 in SW 3.2 mph 4.8 mph 69 % 0.0 in
01:55 15.4 °F 9.7 °F 1020.9 in SW 3.2 mph 4.8 mph 69 % 0.0 in
02:05 15.6 °F 9.9 °F 1020.9 in Calm   3.2 mph 69 % 0.0 in
02:15 16.0 °F 10.3 °F 1020.9 in WSW 1.6 mph 3.2 mph 69 % 0.0 in
02:25 16.4 °F 10.7 °F 1020.9 in Calm   3.2 mph 69 % 0.0 in
02:35 17.4 °F 11.4 °F 1020.9 in Calm     68 % 0.0 in
02:45 18.0 °F 11.6 °F 1020.9 in Calm     66 % 0.0 in
02:55 17.9 °F 11.2 °F 1021.9 in West 1.6 mph 3.2 mph 65 % 0.0 in
03:05 18.1 °F 11.2 °F 1021.9 in SW 1.6 mph 3.2 mph 64 % 0.0 in
03:15 18.5 °F 11.6 °F 1020.9 in SW 1.6 mph 3.2 mph 64 % 0.0 in
03:25 19.0 °F 11.6 °F 1021.9 in SW 3.2 mph 3.2 mph 62 % 0.0 in
03:35 19.3 °F 11.8 °F 1021.9 in SW 1.6 mph 3.2 mph 62 % 0.0 in
03:45 19.7 °F 12.2 °F 1020.9 in SW 1.6 mph 3.2 mph 62 % 0.0 in
03:55 20.0 °F 12.0 °F 1021.9 in SW 1.6 mph 3.2 mph 60 % 0.0 in
04:05 21.0 °F 12.7 °F 1021.9 in SSW 1.6 mph 4.8 mph 59 % 0.0 in
04:15 21.7 °F 13.1 °F 1021.9 in NE 1.6 mph 3.2 mph 58 % 0.0 in
04:25 22.2 °F 13.3 °F 1021.9 in Calm   6.4 mph 57 % 0.0 in
04:35 22.6 °F 13.4 °F 1021.9 in Calm   3.2 mph 56 % 0.0 in
04:45 23.1 °F 13.6 °F 1020.9 in ENE 3.2 mph 4.8 mph 55 % 0.0 in
04:55 23.5 °F 13.4 °F 1021.9 in East 1.6 mph 4.8 mph 53 % 0.0 in
05:05 23.8 °F 13.3 °F 1021.9 in ESE 1.6 mph 3.2 mph 52 % 0.0 in
05:15 24.8 °F 14.3 °F 1021.9 in East 1.6 mph 3.2 mph 52 % 0.0 in
05:25 25.0 °F 13.8 °F 1021.9 in ENE 3.2 mph 4.8 mph 50 % 0.0 in
05:35 25.5 °F 14.3 °F 1021.9 in East 1.6 mph 4.8 mph 50 % 0.0 in
05:45 26.1 °F 14.6 °F 1021.9 in East 1.6 mph 3.2 mph 49 % 0.0 in
10:52 26.1 °F 14.2 °F 1021.9 in ENE 5.6 mph 5.6 mph 48 % 0.0 in
10:57 26.4 °F 14.5 °F 1021.9 in SE 3.9 mph 3.9 mph 48 % 0.0 in
11:02 26.9 °F 14.9 °F 1021.9 in SW 3.7 mph 3.7 mph 48 % 0.0 in
11:07 27.2 °F 14.6 °F 1020.9 in South 5.6 mph 5.6 mph 46 % 0.0 in
11:12 27.9 °F 15.2 °F 1020.9 in WSW 5.6 mph 5.6 mph 46 % 0.0 in
11:17 28.2 °F 15.2 °F 1020.9 in ESE 3.7 mph 3.7 mph 45 % 0.0 in
11:22 28.4 °F 14.9 °F 1019.9 in ESE 3.7 mph 3.7 mph 44 % 0.0 in
11:27 28.1 °F 14.7 °F 1019.9 in West 3.7 mph 3.7 mph 44 % 0.0 in
11:32 27.8 °F 14.1 °F 1019.9 in WSW 7.4 mph 7.4 mph 43 % 0.0 in
11:37 28.2 °F 14.1 °F 1019.9 in ENE 3.7 mph 3.7 mph 42 % 0.0 in
11:42 28.2 °F 14.1 °F 1019.9 in SW 5.6 mph 5.6 mph 42 % 0.0 in
11:47 29.1 °F 14.5 °F 1019.9 in SSW 5.6 mph 5.6 mph 41 % 0.0 in
11:52 29.4 °F 13.6 °F 1018.8 in NE 9.3 mph 9.3 mph 38 % 0.0 in
11:57 28.7 °F 13.4 °F 1018.8 in South 3.9 mph 3.9 mph 39 % 0.0 in
12:02 29.4 °F 13.6 °F 1018.8 in ENE 3.7 mph   38 % 0.0 in
12:07 29.5 °F 13.7 °F 1018.8 in West 3.7 mph 3.7 mph 38 % 0.0 in
12:12 29.5 °F 12.8 °F 1018.8 in ENE 5.6 mph 5.6 mph 36 % 0.0 in
12:17 29.9 °F 14.1 °F 1018.8 in ESE 3.7 mph 3.7 mph 38 % 0.0 in
12:22 30.1 °F 14.2 °F 1018.8 in West 7.4 mph 7.4 mph 38 % 0.0 in
12:27 30.1 °F 13.8 °F 1018.8 in WSW 9.3 mph 9.3 mph 37 % 0.0 in
12:32 30.2 °F 13.5 °F 1018.8 in SSW 5.6 mph 5.6 mph 36 % 0.0 in
12:37 31.1 °F 14.3 °F 1017.8 in SW 7.4 mph 7.4 mph 36 % 0.0 in
12:42 31.1 °F 14.3 °F 1017.8 in SW 4.2 mph 4.2 mph 36 % 0.0 in
12:47 31.4 °F 14.1 °F 1017.8 in SW 7.4 mph 7.4 mph 35 % 0.0 in
12:52 31.0 °F 13.3 °F 1017.8 in West 7.4 mph 7.4 mph 34 % 0.0 in
12:57 31.4 °F 13.7 °F 1017.8 in South 5.6 mph 5.6 mph 34 % 0.0 in
13:02 31.3 °F 13.1 °F 1017.8 in South 7.4 mph 7.4 mph 33 % 0.0 in
13:07 31.7 °F 13.4 °F 1017.8 in NE 3.7 mph 3.7 mph 33 % 0.0 in
13:12 30.9 °F 12.8 °F 1017.8 in SSE 5.3 mph 5.3 mph 33 % 0.0 in
13:17 31.0 °F 12.4 °F 1017.8 in SSE 5.6 mph 5.6 mph 32 % 0.0 in
13:22 31.4 °F 13.2 °F 1017.8 in WSW 7.4 mph 7.4 mph 33 % 0.0 in
13:27 31.2 °F 12.6 °F 1017.8 in West 11.1 mph 11.1 mph 32 % 0.0 in
13:32 30.3 °F 11.8 °F 1017.8 in ESE 9.3 mph 9.3 mph 32 % 0.0 in
13:37 30.4 °F 11.8 °F 1017.8 in NE 4.7 mph 4.7 mph 32 % 0.0 in
13:38 30.3 °F 11.8 °F 1017.8 in ENE 3.9 mph 3.9 mph 32 % 0.0 in
13:43 30.9 °F 12.3 °F 1017.8 in SW 5.6 mph 5.6 mph 32 % 0.0 in
13:48 31.1 °F 12.0 °F 1017.8 in SSE 3.7 mph 3.7 mph 31 % 0.0 in
13:53 31.2 °F 12.6 °F 1017.8 in SSE 5.6 mph 5.6 mph 32 % 0.0 in
13:58 31.5 °F 12.3 °F 1017.8 in SSW 7.4 mph 7.4 mph 31 % 0.0 in
14:03 31.7 °F 12.0 °F 1017.8 in SSE 3.7 mph 3.7 mph 30 % 0.0 in
14:08 31.2 °F 11.6 °F 1017.8 in SSW 7.4 mph 7.4 mph 30 % 0.0 in
14:13 31.6 °F 12.4 °F 1017.8 in SW 9.3 mph 9.3 mph 31 % 0.0 in
14:18 31.8 °F 12.6 °F 1017.8 in North 7.4 mph 7.4 mph 31 % 0.0 in
14:23 32.3 °F 12.5 °F 1017.8 in West 6.1 mph 6.1 mph 30 % 0.0 in
14:28 32.0 °F 12.3 °F 1017.8 in West 16.7 mph 16.7 mph 30 % 0.0 in
14:33 32.0 °F 11.7 °F 1017.8 in SSW 14.8 mph 14.8 mph 29 % 0.0 in
14:38 32.0 °F 11.7 °F 1018.8 in South 16.9 mph 16.9 mph 29 % 0.0 in
14:43 32.1 °F 11.8 °F 1018.8 in South 13.0 mph 13.0 mph 29 % 0.0 in
14:48 31.8 °F 11.6 °F 1018.8 in SW 9.3 mph 9.3 mph 29 % 0.0 in
14:53 31.3 °F 10.6 °F 1017.8 in SW 18.5 mph 18.5 mph 28 % 0.0 in
14:58 31.2 °F 10.5 °F 1017.8 in SSW 14.8 mph 14.8 mph 28 % 0.0 in
15:03 31.5 °F 10.8 °F 1017.8 in WSW 13.0 mph 13.0 mph 28 % 0.0 in
15:08 31.2 °F 10.5 °F 1017.8 in SSW 9.3 mph 9.3 mph 28 % 0.0 in
15:13 30.6 °F 9.4 °F 1017.8 in South 19.5 mph 19.5 mph 27 % 0.0 in
15:18 30.5 °F 9.4 °F 1017.8 in SW 20.4 mph 20.4 mph 27 % 0.0 in
15:23 30.5 °F 9.4 °F 1016.8 in SW 13.0 mph 13.0 mph 27 % 0.0 in
15:28 30.1 °F 9.1 °F 1016.8 in SW 24.1 mph 24.1 mph 27 % 0.0 in
15:33 30.3 °F 9.2 °F 1016.8 in South 16.7 mph 16.7 mph 27 % 0.0 in
15:38 30.0 °F 8.4 °F 1017.8 in WSW 20.4 mph 20.4 mph 26 % 0.0 in
15:43 30.0 °F 8.9 °F 1017.8 in South 20.4 mph 20.4 mph 27 % 0.0 in
15:48 30.1 °F 9.1 °F 1017.8 in SW 20.4 mph 20.4 mph 27 % 0.0 in
15:53 30.2 °F 9.1 °F 1016.8 in SSW 16.7 mph 16.7 mph 27 % 0.0 in
15:58 30.6 °F 9.4 °F 1016.8 in SSW 5.8 mph 5.8 mph 27 % 0.0 in
16:03 30.6 °F 9.4 °F 1016.8 in SW 13.0 mph 13.0 mph 27 % 0.0 in
16:08 30.3 °F 9.2 °F 1016.8 in SW 20.4 mph 20.4 mph 27 % 0.0 in
16:13 30.3 °F 9.2 °F 1016.8 in West 13.0 mph 13.0 mph 27 % 0.0 in
16:18 30.7 °F 9.6 °F 1016.8 in WSW 16.9 mph 16.9 mph 27 % 0.0 in
16:23 30.9 °F 9.7 °F 1015.8 in South 10.0 mph 10.0 mph 27 % 0.0 in
16:28 30.7 °F 9.6 °F 1015.8 in WSW 13.0 mph 13.0 mph 27 % 0.0 in
16:33 31.0 °F 9.8 °F 1015.8 in SW 7.4 mph 7.4 mph 27 % 0.0 in
16:38 30.7 °F 9.6 °F 1015.8 in SSW 13.0 mph 13.0 mph 27 % 0.0 in
16:43 30.7 °F 9.6 °F 1015.8 in SSW 17.2 mph 17.2 mph 27 % 0.0 in
16:48 30.5 °F 8.8 °F 1015.8 in South 16.7 mph 16.7 mph 26 % 0.0 in
16:53 30.7 °F 9.6 °F 1015.8 in WSW 9.3 mph 9.3 mph 27 % 0.0 in
16:58 30.3 °F 8.7 °F 1015.8 in SW 14.8 mph 14.8 mph 26 % 0.0 in
17:03 30.3 °F 8.7 °F 1015.8 in SSW 14.8 mph 14.8 mph 26 % 0.0 in
17:08 30.5 °F 8.8 °F 1015.8 in SW 15.1 mph 15.1 mph 26 % 0.0 in
17:13 30.3 °F 8.7 °F 1015.8 in SSW 14.8 mph 14.8 mph 26 % 0.0 in
17:18 30.4 °F 8.7 °F 1015.8 in SSE 13.0 mph 13.0 mph 26 % 0.0 in
17:23 30.6 °F 8.9 °F 1014.8 in WSW 9.3 mph 9.3 mph 26 % 0.0 in
17:28 30.2 °F 8.6 °F 1014.8 in WSW 16.7 mph 16.7 mph 26 % 0.0 in
17:33 29.9 °F 8.9 °F 1014.8 in ESE 12.6 mph 12.6 mph 27 % 0.0 in
17:39 30.0 °F 8.4 °F 1015.8 in SW 16.7 mph 16.7 mph 26 % 0.0 in
17:44 29.7 °F 8.2 °F 1015.8 in SSW 18.5 mph 18.5 mph 26 % 0.0 in
17:49 29.6 °F 8.1 °F 1015.8 in SW 13.0 mph 13.0 mph 26 % 0.0 in
17:54 29.5 °F 8.6 °F 1015.8 in WSW 9.3 mph 9.3 mph 27 % 0.0 in
17:59 29.5 °F 8.6 °F 1015.8 in SW 16.7 mph 16.7 mph 27 % 0.0 in
18:00 29.6 °F 8.6 °F 1015.8 in SSW 11.1 mph 11.1 mph 27 % 0.0 in
18:05 29.4 °F 8.4 °F 1015.8 in SE 14.8 mph 14.8 mph 27 % 0.0 in
18:10 29.2 °F 8.3 °F 1015.8 in West 14.8 mph 14.8 mph 27 % 0.0 in
18:15 29.0 °F 8.1 °F 1015.8 in SSW 16.7 mph 16.7 mph 27 % 0.0 in
18:20 28.9 °F 8.6 °F 1015.8 in WSW 22.2 mph 22.2 mph 28 % 0.0 in
18:25 28.4 °F 8.1 °F 1015.8 in WSW 11.1 mph 11.1 mph 28 % 0.0 in
18:30 28.4 °F 8.1 °F 1015.8 in South 9.3 mph 9.3 mph 28 % 0.0 in
18:35 28.3 °F 8.1 °F 1015.8 in SW 15.6 mph 15.6 mph 28 % 0.0 in
18:40 28.2 °F 8.5 °F 1015.8 in SW 11.1 mph 11.1 mph 29 % 0.0 in
18:45 27.8 °F 7.6 °F 1015.8 in WSW 14.8 mph 14.8 mph 28 % 0.0 in
18:50 27.4 °F 7.3 °F 1015.8 in SW 22.2 mph 22.2 mph 28 % 0.0 in
18:55 27.0 °F 6.9 °F 1015.8 in South 20.4 mph 20.4 mph 28 % 0.0 in
19:00 27.1 °F 7.6 °F 1015.8 in SW 14.5 mph 14.5 mph 29 % 0.0 in
19:05 26.9 °F 7.3 °F 1015.8 in SSW 20.4 mph 20.4 mph 29 % 0.0 in
19:10 26.7 °F 6.7 °F 1015.8 in SSW 14.8 mph 14.8 mph 28 % 0.0 in
19:15 26.7 °F 7.2 °F 1015.8 in WSW 20.4 mph 20.4 mph 29 % 0.0 in
19:20 26.7 °F 7.2 °F 1015.8 in SW 13.0 mph 13.0 mph 29 % 0.0 in
19:25 26.5 °F 7.0 °F 1015.8 in WSW 16.7 mph 16.7 mph 29 % 0.0 in
19:30 26.5 °F 7.0 °F 1015.8 in SW 18.5 mph 18.5 mph 29 % 0.0 in
19:35 26.3 °F 6.8 °F 1015.8 in SW 13.7 mph 13.7 mph 29 % 0.0 in
19:40 26.3 °F 6.8 °F 1015.8 in South 14.8 mph 14.8 mph 29 % 0.0 in
19:45 26.2 °F 6.8 °F 1015.8 in SW 18.5 mph 18.5 mph 29 % 0.0 in
19:50 26.1 °F 6.7 °F 1015.8 in SW 13.0 mph 13.0 mph 29 % 0.0 in
19:55 26.1 °F 6.7 °F 1016.8 in WSW 13.0 mph 13.0 mph 29 % 0.0 in
20:00 25.9 °F 6.5 °F 1016.8 in SSW 16.7 mph 16.7 mph 29 % 0.0 in
20:05 25.9 °F 6.5 °F 1016.8 in SW 13.0 mph 13.0 mph 29 % 0.0 in
20:10 25.8 °F 6.9 °F 1015.8 in South 11.1 mph 11.1 mph 30 % 0.0 in
20:15 25.7 °F 6.8 °F 1015.8 in SW 14.8 mph 14.8 mph 30 % 0.0 in
20:20 25.6 °F 6.7 °F 1015.8 in SSW 11.1 mph 11.1 mph 30 % 0.0 in
20:25 25.5 °F 6.7 °F 1015.8 in SW 9.3 mph 9.3 mph 30 % 0.0 in
20:30 25.3 °F 6.4 °F 1015.8 in SSW 14.8 mph 14.8 mph 30 % 0.0 in
20:35 25.2 °F 6.4 °F 1015.8 in SW 11.1 mph 11.1 mph 30 % 0.0 in
20:40 25.1 °F 6.3 °F 1015.8 in SW 8.7 mph 8.7 mph 30 % 0.0 in
20:45 25.0 °F 6.2 °F 1015.8 in SSW 11.1 mph 11.1 mph 30 % 0.0 in
20:50 24.8 °F 6.5 °F 1015.8 in WSW 9.3 mph 9.3 mph 31 % 0.0 in
20:55 24.7 °F 6.4 °F 1015.8 in SSW 9.5 mph 9.5 mph 31 % 0.0 in
21:00 24.6 °F 6.3 °F 1015.8 in SW 9.3 mph 9.3 mph 31 % 0.0 in
21:05 24.5 °F 6.3 °F 1015.8 in SSW 7.4 mph 7.4 mph 31 % 0.0 in
21:10 24.3 °F 6.6 °F 1015.8 in SW 8.7 mph 8.7 mph 32 % 0.0 in
21:15 24.2 °F 6.4 °F 1015.8 in WSW 13.0 mph 13.0 mph 32 % 0.0 in
21:20 24.1 °F 6.4 °F 1015.8 in SW 13.0 mph 13.0 mph 32 % 0.0 in
21:25 23.9 °F 6.2 °F 1015.8 in SSW 13.7 mph 13.7 mph 32 % 0.0 in
21:30 23.8 °F 6.1 °F 1015.8 in SSW 9.3 mph 9.3 mph 32 % 0.0 in
21:35 23.7 °F 6.0 °F 1015.8 in SW 9.3 mph 9.3 mph 32 % 0.0 in
21:40 23.5 °F 5.8 °F 1015.8 in SW 7.4 mph 7.4 mph 32 % 0.0 in
21:45 23.4 °F 6.2 °F 1015.8 in SW 7.4 mph 7.4 mph 33 % 0.0 in
21:50 23.3 °F 6.1 °F 1015.8 in WSW 5.6 mph 5.6 mph 33 % 0.0 in
21:55 23.1 °F 5.9 °F 1015.8 in SW 5.6 mph 5.6 mph 33 % 0.0 in
22:00 23.0 °F 5.8 °F 1015.8 in SW 3.7 mph 3.7 mph 33 % 0.0 in
22:05 22.9 °F 6.2 °F 1015.8 in West 5.6 mph 5.6 mph 34 % 0.0 in
22:10 22.8 °F 6.6 °F 1015.8 in WSW 1.9 mph 1.9 mph 35 % 0.0 in
22:15 22.7 °F 6.4 °F 1015.8 in NW 3.7 mph 3.7 mph 35 % 0.0 in
22:20 22.7 °F 6.4 °F 1015.8 in WSW 3.7 mph 3.7 mph 35 % 0.0 in
22:25 22.6 °F 6.8 °F 1015.8 in WSW 1.9 mph 1.9 mph 36 % 0.0 in
22:30 22.5 °F 6.7 °F 1015.8 in WSW 4.2 mph 4.2 mph 36 % 0.0 in
22:35 22.4 °F 6.6 °F 1015.8 in West 3.9 mph 3.9 mph 36 % 0.0 in
22:40 22.3 °F 6.5 °F 1016.8 in West 3.7 mph 3.7 mph 36 % 0.0 in
22:45 22.3 °F 6.5 °F 1016.8 in West 5.6 mph 5.6 mph 36 % 0.0 in
22:50 22.2 °F 6.4 °F 1016.8 in West 5.6 mph 5.6 mph 36 % 0.0 in
22:55 22.1 °F 6.3 °F 1016.8 in WSW 5.0 mph 5.0 mph 36 % 0.0 in
23:00 22.0 °F 6.6 °F 1016.8 in WSW 3.7 mph 3.7 mph 37 % 0.0 in
23:05 22.0 °F 6.6 °F 1016.8 in West 7.4 mph 7.4 mph 37 % 0.0 in
23:10 21.9 °F 6.6 °F 1016.8 in WSW 3.9 mph 3.9 mph 37 % 0.0 in
23:15 21.8 °F 6.4 °F 1016.8 in SW 4.7 mph 4.7 mph 37 % 0.0 in
23:20 21.7 °F 6.4 °F 1016.8 in SW 4.2 mph 4.2 mph 37 % 0.0 in
23:25 21.5 °F 6.6 °F 1015.8 in SW 3.7 mph 3.7 mph 38 % 0.0 in
23:30 21.5 °F 6.6 °F 1015.8 in WSW 4.2 mph 4.2 mph 38 % 0.0 in
23:35 21.5 °F 6.6 °F 1015.8 in SW 3.7 mph 3.7 mph 38 % 0.0 in
23:40 21.4 °F 6.5 °F 1015.8 in West 3.7 mph 3.7 mph 38 % 0.0 in
23:45 21.4 °F 6.9 °F 1015.8 in West 3.7 mph 3.7 mph 39 % 0.0 in
23:55 21.2 °F 6.7 °F 1016.8 in WSW 3.7 mph 3.7 mph 39 % 0.0 in
Meteo Sesrovires
Elogis d' Weather Underground - 3.5 mb

Guio original per  Jim McMurry - jmcmurry@mwt.net Adaptat per a la plantilla per  Wim van der Kuil - Leuven-Template.eu

Trobareu la nostra informacio del temps tambe a:

Weather Underground

AWEKAS